NWWW METAR and TAF weather

Enter ICAO airport designator
Station Type Date Time Source
NWWW METAR 2019/04/25 02:00 UTC NOAA

NWWW 250200Z AUTO 13015KT CAVOK 27/20 Q1013 TEMPO 13015G25KT FEW020TCU


Station Type Date Time Source
NWWW Decoded METAR 2019/04/25 02:00 UTC NOAA

La Tontouta Nlle-Caledonie , New Caledonia (NWWW) 22-01S 166-13E 14M
Apr 24, 2019 - 10:00 PM EDT / 2019.04.25 0200 UTC
Wind: from the SE (130 degrees) at 17 MPH (15 KT):0
Visibility: greater than 7 mile(s):0
Weather: Towering cumulus clouds observed
Temperature: 80 F (27 C)
Dew Point: 68 F (20 C)
Relative Humidity: 65%
Pressure (altimeter): 29.91 in. Hg (1013 hPa)
ob: NWWW 250200Z AUTO 13015KT CAVOK 27/20 Q1013 TEMPO 13015G25KT FEW020TCU
cycle: 2

Station Type Date Time Source
NWWW TAF 2019/04/24 18:43 UTC NOAA

TAF NWWW 241700Z 2418/2518 VRB02KT 9999 SCT040
BECMG 2423/2501 13015KT
BECMG 2506/2508 VRB02KT

Example: see airport list